Time;durP1;ratioP1;P1;durP2;ratioP2;P2;SDS_P1;SDS_P2;PMS_P1;PMS_P2;Temp;Humidity;BMP_temperature;BMP_pressure;BME280_temperature;BME280_humidity;BME280_pressure;Samples;Min_cycle;Max_cycle;Signal;HPM_P1;HPM_P2
2022/04/22 00:01:28;;;;;;;7.70;6.93;;;11.20;99.90;;;;;;4964001;28;20050;-75
2022/04/22 00:03:54;;;;;;;8.45;5.88;;;11.20;99.90;;;;;;4976392;28;20057;-75
2022/04/22 00:06:20;;;;;;;7.00;6.30;;;11.10;99.90;;;;;;5000862;28;20045;-75
2022/04/22 00:08:46;;;;;;;7.20;6.50;;;11.10;99.90;;;;;;4983135;28;20014;-75
2022/04/22 00:11:30;;;;;;;7.20;6.50;;;11.10;99.90;;;;;;4983539;28;20037;-75
2022/04/22 00:14:01;;;;;;;7.78;6.82;;;11.10;99.90;;;;;;4983150;28;20441;-75
2022/04/22 00:16:31;;;;;;;;;;;11.00;99.90;;;;;;5001116;28;20046;-74
2022/04/22 00:18:57;;;;;;;8.07;6.20;;;11.00;99.90;;;;;;4964107;28;19944;-74
2022/04/22 00:21:24;;;;;;;7.07;6.38;;;11.10;99.90;;;;;;4963679;28;20383;-75
2022/04/22 00:23:50;;;;;;;7.38;6.07;;;11.00;99.90;;;;;;4981191;28;20030;-74
2022/04/22 00:26:17;;;;;;;9.52;7.30;;;11.00;99.90;;;;;;4980495;28;20080;-75
2022/04/22 00:28:43;;;;;;;8.10;7.30;;;11.00;99.90;;;;;;4980963;28;20113;-74
2022/04/22 00:31:09;;;;;;;8.68;7.78;;;11.00;99.90;;;;;;4980667;28;20031;-75
2022/04/22 00:33:35;;;;;;;9.73;8.27;;;11.00;99.90;;;;;;4980997;28;20029;-74
2022/04/22 00:36:01;;;;;;;8.05;7.25;;;11.00;99.90;;;;;;4963187;28;20809;-75
2022/04/22 00:38:27;;;;;;;7.50;6.80;;;11.00;99.90;;;;;;4980621;28;20042;-74
2022/04/22 00:40:55;;;;;;;7.30;6.60;;;11.00;99.90;;;;;;4980330;28;20062;-75
2022/04/22 00:43:24;;;;;;;8.10;7.30;;;11.00;99.90;;;;;;4980986;28;20023;-75
2022/04/22 00:45:51;;;;;;;8.30;7.40;;;10.90;99.90;;;;;;4962737;28;20058;-74
2022/04/22 00:48:18;;;;;;;8.45;6.97;;;11.00;99.90;;;;;;4980705;28;20023;-74
2022/04/22 00:50:45;;;;;;;9.50;7.53;;;11.00;99.90;;;;;;4980307;28;20014;-74
2022/04/22 00:53:12;;;;;;;11.48;7.72;;;11.00;99.90;;;;;;4963234;28;20019;-73
2022/04/22 00:55:43;;;;;;;7.65;6.88;;;11.00;99.90;;;;;;4980243;28;20050;-73
2022/04/22 00:58:10;;;;;;;7.53;6.75;;;11.00;99.90;;;;;;4963106;28;20027;-73
2022/04/22 01:00:36;;;;;;;8.10;7.07;;;11.00;99.90;;;;;;4962618;28;20027;-74
2022/04/22 01:03:04;;;;;;;11.43;9.30;;;11.00;99.90;;;;;;4980371;28;20459;-74
2022/04/22 01:10:59;;;;;;;12.70;8.30;;;11.00;99.90;;;;;;4988889;28;20073;-74
2022/04/22 01:13:25;;;;;;;9.20;8.25;;;11.00;99.90;;;;;;4999426;28;20030;-74
2022/04/22 01:15:51;;;;;;;8.57;7.75;;;11.00;99.90;;;;;;4999078;28;20038;-74
2022/04/22 01:18:18;;;;;;;13.77;9.50;;;11.00;99.90;;;;;;4983879;28;20480;-74
2022/04/22 01:20:44;;;;;;;11.35;9.27;;;11.00;99.90;;;;;;4980076;28;20105;-74
2022/04/22 01:23:10;;;;;;;9.57;8.23;;;11.00;99.90;;;;;;4979712;28;20038;-74
2022/04/22 01:25:36;;;;;;;11.80;10.15;;;11.00;99.90;;;;;;4962145;28;20122;-74
2022/04/22 01:28:02;;;;;;;10.43;8.80;;;11.00;99.90;;;;;;4962063;28;20391;-74
2022/04/22 01:30:29;;;;;;;11.80;9.43;;;11.00;99.90;;;;;;4980168;28;20019;-74
2022/04/22 01:32:56;;;;;;;13.57;10.90;;;11.00;99.90;;;;;;4963615;28;20019;-74
2022/04/22 01:35:24;;;;;;;13.80;10.25;;;11.00;99.90;;;;;;4980673;28;20026;-75
2022/04/22 01:37:50;;;;;;;13.50;9.68;;;11.00;99.90;;;;;;4979858;28;20061;-75
2022/04/22 01:40:16;;;;;;;13.18;9.82;;;11.00;99.90;;;;;;4980271;28;20097;-74
2022/04/22 01:42:43;;;;;;;14.00;10.10;;;11.00;99.90;;;;;;4961982;28;20411;-74
2022/04/22 01:45:10;;;;;;;15.98;11.43;;;11.00;99.90;;;;;;4981460;28;20466;-74
2022/04/22 01:47:36;;;;;;;17.65;11.52;;;10.90;99.90;;;;;;4981129;28;20018;-75
2022/04/22 01:50:02;;;;;;;12.40;10.85;;;10.90;99.90;;;;;;4981406;28;20038;-75
2022/04/22 01:52:29;;;;;;;15.50;10.98;;;10.90;99.90;;;;;;4998568;28;20014;-75
2022/04/22 01:54:56;;;;;;;15.68;11.07;;;10.90;99.90;;;;;;4998729;28;20023;-74
2022/04/22 01:57:22;;;;;;;12.88;9.55;;;10.90;99.90;;;;;;4981017;28;20512;-75
2022/04/22 01:59:49;;;;;;;12.57;10.07;;;10.90;99.90;;;;;;4998640;28;20034;-75
2022/04/22 02:02:16;;;;;;;15.68;11.07;;;10.90;99.90;;;;;;4998390;28;20368;-74
2022/04/22 02:04:43;;;;;;;18.50;11.82;;;10.90;99.90;;;;;;4998630;28;20026;-75
2022/04/22 02:07:09;;;;;;;20.23;11.48;;;10.90;99.90;;;;;;4998314;28;20442;-74
2022/04/22 02:09:35;;;;;;;15.65;12.13;;;10.90;99.90;;;;;;4998528;28;20026;-74
2022/04/22 02:12:01;;;;;;;13.20;10.88;;;10.90;99.90;;;;;;4998098;28;20050;-75
2022/04/22 02:14:27;;;;;;;14.32;11.00;;;10.90;99.90;;;;;;4998286;28;20406;-74
2022/04/22 02:16:53;;;;;;;12.27;10.80;;;10.90;99.90;;;;;;4980161;28;20050;-75
2022/04/22 02:19:19;;;;;;;13.23;10.80;;;10.80;99.90;;;;;;4980996;28;20090;-74
2022/04/22 02:21:46;;;;;;;16.00;12.07;;;10.80;99.90;;;;;;4996805;28;20053;-74
2022/04/22 02:24:12;;;;;;;13.20;11.38;;;10.80;99.90;;;;;;4996916;28;20069;-75
2022/04/22 02:29:23;;;;;;;14.63;9.95;;;10.80;99.90;;;;;;4997427;28;20050;-74
2022/04/22 02:31:53;;;;;;;15.48;11.15;;;10.80;99.90;;;;;;4993195;28;20025;-74
2022/04/22 02:34:20;;;;;;;13.77;10.25;;;10.80;99.90;;;;;;4979307;28;20034;-74
2022/04/22 02:36:47;;;;;;;10.82;9.20;;;10.80;99.90;;;;;;4978619;28;20030;-74
2022/04/22 02:39:12;;;;;;;18.17;10.15;;;10.80;99.90;;;;;;4995321;28;20018;-74
2022/04/22 02:47:07;;;;;;;12.55;9.70;;;10.80;99.90;;;;;;4997057;28;20041;-74
2022/04/22 02:49:33;;;;;;;11.13;9.55;;;10.80;99.90;;;;;;4979207;28;20014;-74
2022/04/22 02:51:59;;;;;;;11.60;8.32;;;10.80;99.90;;;;;;4979444;28;20056;-75
2022/04/22 02:54:25;;;;;;;10.40;9.02;;;10.80;99.90;;;;;;4975205;28;20029;-74
2022/04/22 02:56:52;;;;;;;9.85;8.13;;;10.80;99.90;;;;;;4997199;28;20057;-75
2022/04/22 02:59:18;;;;;;;13.10;9.65;;;10.70;99.90;;;;;;4966024;28;20043;-74
2022/04/22 03:01:45;;;;;;;9.45;8.55;;;10.70;99.90;;;;;;4994983;28;20030;-74
2022/04/22 03:04:11;;;;;;;11.18;8.13;;;10.80;99.90;;;;;;4961179;28;20050;-74
2022/04/22 03:06:37;;;;;;;10.60;7.80;;;10.80;99.90;;;;;;4978279;28;20031;-75
2022/04/22 03:09:04;;;;;;;10.43;8.07;;;10.70;99.90;;;;;;4978223;28;20491;-74
2022/04/22 03:11:30;;;;;;;9.38;7.95;;;10.70;99.90;;;;;;4960689;28;20027;-75
2022/04/22 03:13:55;;;;;;;8.27;7.47;;;10.70;99.90;;;;;;4978017;28;20117;-75
2022/04/22 03:16:26;;;;;;;14.35;7.13;;;10.70;99.90;;;;;;4973622;28;20050;-75
2022/04/22 03:18:52;;;;;;;11.65;7.07;;;10.70;99.90;;;;;;4990824;28;20487;-75
2022/04/22 03:21:18;;;;;;;8.35;7.05;;;10.60;99.90;;;;;;4978111;28;20097;-75
2022/04/22 03:23:44;;;;;;;9.18;8.18;;;10.70;99.90;;;;;;4960769;28;20398;-75
2022/04/22 03:26:10;;;;;;;8.85;7.10;;;10.60;99.90;;;;;;4960373;28;20039;-75
2022/04/22 03:28:36;;;;;;;11.40;8.10;;;10.60;99.90;;;;;;4960691;28;20019;-75
2022/04/22 03:31:02;;;;;;;7.95;7.15;;;10.60;99.90;;;;;;4977949;28;20062;-74
2022/04/22 03:33:27;;;;;;;11.57;7.18;;;10.60;99.90;;;;;;4978226;28;20026;-75
2022/04/22 03:35:53;;;;;;;7.53;6.70;;;10.60;99.90;;;;;;4960463;28;20474;-75
2022/04/22 03:38:20;;;;;;;9.93;8.35;;;10.60;99.90;;;;;;4977899;28;20051;-75
2022/04/22 03:40:51;;;;;;;8.65;6.72;;;10.60;99.90;;;;;;4960557;28;20113;-75
2022/04/22 03:43:18;;;;;;;9.10;7.38;;;10.60;99.90;;;;;;4960677;28;20030;-74
2022/04/22 03:45:44;;;;;;;8.32;7.38;;;10.60;99.90;;;;;;4960298;28;20070;-75
2022/04/22 03:48:11;;;;;;;8.65;7.68;;;10.50;99.90;;;;;;4978905;28;20498;-75
2022/04/22 03:50:37;;;;;;;10.70;8.02;;;10.50;99.90;;;;;;4981491;28;20113;-75
2022/04/22 03:53:04;;;;;;;9.40;7.28;;;10.50;99.90;;;;;;4964424;28;20494;-75
2022/04/22 03:55:30;;;;;;;11.82;7.60;;;10.50;99.90;;;;;;4981400;28;20023;-76
2022/04/22 03:58:11;;;;;;;9.10;7.40;;;10.50;99.90;;;;;;4988592;28;20073;-75
2022/04/22 04:00:43;;;;;;;;;;;10.50;99.90;;;;;;5001140;28;20031;-74
2022/04/22 04:03:11;;;;;;;8.20;6.75;;;10.50;99.90;;;;;;5000783;28;19906;-75
2022/04/22 04:05:38;;;;;;;10.45;8.00;;;10.50;99.90;;;;;;5000687;28;20029;-75
2022/04/22 04:08:05;;;;;;;9.60;8.05;;;10.50;99.90;;;;;;5000862;28;20042;-75
2022/04/22 04:16:03;;;;;;;10.63;7.43;;;10.50;99.90;;;;;;5001791;28;20120;-74
2022/04/22 04:18:31;;;;;;;8.32;7.40;;;10.50;99.90;;;;;;4983782;28;20030;-74
2022/04/22 04:23:42;;;;;;;9.95;8.10;;;10.40;99.90;;;;;;5000873;28;20069;-75
2022/04/22 04:26:09;;;;;;;10.50;8.05;;;10.50;99.90;;;;;;4982663;28;20035;-77
2022/04/22 04:28:36;;;;;;;9.32;7.20;;;10.40;99.90;;;;;;4982890;28;20466;-77
2022/04/22 04:31:02;;;;;;;12.63;7.72;;;10.40;99.90;;;;;;4995370;28;20022;-77
2022/04/22 04:33:29;;;;;;;9.20;8.15;;;10.50;99.90;;;;;;4980952;28;20546;-74
2022/04/22 04:35:56;;;;;;;8.82;7.65;;;10.40;99.90;;;;;;4963283;28;20062;-75
2022/04/22 04:38:22;;;;;;;8.30;7.35;;;10.40;99.90;;;;;;4980809;28;20031;-75
2022/04/22 04:40:48;;;;;;;7.15;6.35;;;10.50;99.90;;;;;;4980473;28;20038;-75
2022/04/22 04:43:14;;;;;;;13.32;7.40;;;10.40;99.90;;;;;;4980682;28;20430;-75
2022/04/22 04:45:40;;;;;;;11.20;7.15;;;10.40;99.90;;;;;;4978370;28;20113;-75
2022/04/22 04:48:07;;;;;;;7.55;6.65;;;10.40;99.90;;;;;;5000452;28;20025;-76
2022/04/22 04:50:33;;;;;;;8.48;7.00;;;10.40;99.90;;;;;;4998537;28;20033;-76
2022/04/22 04:52:59;;;;;;;8.65;7.70;;;10.40;99.90;;;;;;4999927;28;20106;-76
2022/04/22 04:55:25;;;;;;;10.70;6.47;;;10.50;99.90;;;;;;4999918;28;20372;-76
2022/04/22 04:57:51;;;;;;;7.95;7.15;;;10.50;99.90;;;;;;4982444;28;20050;-76
2022/04/22 05:00:20;;;;;;;12.40;6.93;;;10.50;99.90;;;;;;4981684;28;20475;-76
2022/04/22 05:02:47;;;;;;;8.90;6.80;;;10.50;99.90;;;;;;4999582;28;20034;-77
2022/04/22 05:05:13;;;;;;;10.88;7.78;;;10.50;99.90;;;;;;4981913;28;20376;-76
2022/04/22 05:07:58;;;;;;;7.40;6.70;;;10.50;99.90;;;;;;4999685;28;20109;-76
2022/04/22 05:10:26;;;;;;;9.13;6.57;;;10.50;99.90;;;;;;4981962;28;20022;-76
2022/04/22 05:12:53;;;;;;;11.48;8.65;;;10.50;99.90;;;;;;4999360;28;20073;-76
2022/04/22 05:15:22;;;;;;;11.25;7.90;;;10.50;99.90;;;;;;4998997;28;20096;-76
2022/04/22 05:17:48;;;;;;;10.15;7.28;;;10.50;99.90;;;;;;4970565;28;20035;-77
2022/04/22 05:20:16;;;;;;;9.85;6.95;;;10.50;99.90;;;;;;4979816;28;20034;-77
2022/04/22 05:22:42;;;;;;;10.27;7.38;;;10.50;99.90;;;;;;4979935;28;20391;-76
2022/04/22 05:25:10;;;;;;;7.35;6.65;;;10.50;99.90;;;;;;4979810;28;20051;-76
2022/04/22 05:27:36;;;;;;;8.15;6.82;;;10.60;99.90;;;;;;4962205;28;20046;-76
2022/04/22 05:32:48;;;;;;;7.95;6.90;;;10.60;99.90;;;;;;4998948;28;20041;-76
2022/04/22 05:35:19;;;;;;;8.10;6.53;;;10.60;99.90;;;;;;4998796;28;20406;-77
2022/04/22 05:37:53;;;;;;;7.57;6.70;;;10.50;99.90;;;;;;4982070;28;20478;-75
2022/04/22 05:40:20;;;;;;;6.90;6.20;;;10.50;99.90;;;;;;4971590;28;20026;-75
2022/04/22 05:42:47;;;;;;;8.52;6.93;;;10.50;99.90;;;;;;4962104;28;20545;-75
2022/04/22 05:45:15;;;;;;;8.80;6.68;;;10.50;99.90;;;;;;4979376;28;20027;-75
2022/04/22 05:47:41;;;;;;;7.82;6.93;;;10.50;99.90;;;;;;4961637;28;20033;-76
2022/04/22 05:50:12;;;;;;;7.55;6.35;;;10.50;99.90;;;;;;4979410;28;20019;-75
2022/04/22 05:52:39;;;;;;;7.93;7.13;;;10.50;99.90;;;;;;4979102;28;20031;-74
2022/04/22 05:55:11;;;;;;;8.43;6.75;;;10.60;99.90;;;;;;4978808;28;20034;-74
2022/04/22 05:57:38;;;;;;;7.78;6.57;;;10.60;99.90;;;;;;4984987;28;20395;-75
2022/04/22 06:00:09;;;;;;;8.52;6.95;;;10.60;99.90;;;;;;4981028;28;20030;-75
2022/04/22 06:02:35;;;;;;;7.38;6.60;;;10.60;99.90;;;;;;4980978;28;20031;-75
2022/04/22 06:05:01;;;;;;;8.75;6.75;;;10.60;99.90;;;;;;4980873;28;20018;-75
2022/04/22 06:07:27;;;;;;;8.07;6.65;;;10.60;99.90;;;;;;4997863;28;20027;-75
2022/04/22 06:12:37;;;;;;;10.63;7.13;;;10.70;99.90;;;;;;4997565;28;20515;-75
2022/04/22 06:15:04;;;;;;;8.52;6.85;;;10.70;99.90;;;;;;4997942;28;20070;-74
2022/04/22 06:17:31;;;;;;;9.23;7.80;;;10.70;99.90;;;;;;4989174;28;20427;-75
2022/04/22 06:19:58;;;;;;;9.05;6.95;;;10.80;99.90;;;;;;4978773;28;20030;-75
2022/04/22 06:22:26;;;;;;;8.68;6.85;;;10.90;99.90;;;;;;4961793;28;20058;-75
2022/04/22 06:24:55;;;;;;;9.93;6.63;;;11.00;99.90;;;;;;4961075;28;20526;-75
2022/04/22 06:27:25;;;;;;;8.02;6.85;;;11.10;99.90;;;;;;4961548;28;20054;-75
2022/04/22 06:29:53;;;;;;;6.57;5.93;;;11.10;99.90;;;;;;4961156;28;20057;-79
2022/04/22 06:32:21;;;;;;;12.32;7.50;;;11.30;99.90;;;;;;4978703;28;20102;-76
2022/04/22 06:34:47;;;;;;;7.90;7.05;;;11.30;99.90;;;;;;4978553;28;20027;-76
2022/04/22 06:37:14;;;;;;;11.07;6.95;;;11.40;99.90;;;;;;4961252;28;20398;-76
2022/04/22 06:47:55;;;;;;;15.55;7.60;;;11.50;99.90;;;;;;4998160;28;20041;-76
2022/04/22 06:50:21;;;;;;;13.25;7.72;;;11.40;99.90;;;;;;4997876;28;20057;-75
2022/04/22 06:52:47;;;;;;;9.73;7.43;;;11.30;99.90;;;;;;4998064;28;20026;-77
2022/04/22 06:55:14;;;;;;;9.68;7.43;;;11.40;99.90;;;;;;4980810;28;20029;-76
2022/04/22 06:57:42;;;;;;;10.55;6.97;;;11.40;99.90;;;;;;4998106;28;20109;-76
2022/04/22 07:00:10;;;;;;;8.75;7.28;;;11.40;99.90;;;;;;4980702;28;20518;-75
2022/04/22 07:02:36;;;;;;;9.23;7.90;;;11.40;99.90;;;;;;4997196;28;20041;-75
2022/04/22 07:05:03;;;;;;;11.70;8.48;;;11.50;99.90;;;;;;4996716;28;20034;-75
2022/04/22 07:07:29;;;;;;;15.73;8.27;;;11.50;99.90;;;;;;4997606;28;20029;-76
2022/04/22 07:09:56;;;;;;;9.10;7.78;;;11.50;99.90;;;;;;4980367;28;20030;-76
2022/04/22 07:12:26;;;;;;;9.48;8.48;;;11.50;99.90;;;;;;4997682;28;20027;-76
2022/04/22 07:14:57;;;;;;;;;;;11.50;99.90;;;;;;4997555;28;20457;-75
2022/04/22 07:17:23;;;;;;;10.45;8.65;;;11.50;99.90;;;;;;4989482;28;19953;-76
2022/04/22 07:19:49;;;;;;;9.68;8.63;;;11.60;99.90;;;;;;4978122;28;20038;-75
2022/04/22 07:22:15;;;;;;;11.23;8.68;;;11.60;99.90;;;;;;4978238;28;20087;-76
2022/04/22 07:24:41;;;;;;;9.45;7.93;;;11.70;99.90;;;;;;4964253;28;20034;-75
2022/04/22 07:27:07;;;;;;;12.23;8.52;;;11.80;99.90;;;;;;4964193;28;20033;-76
2022/04/22 07:29:34;;;;;;;9.27;7.70;;;11.80;99.90;;;;;;4964914;28;20031;-78
2022/04/22 07:32:00;;;;;;;8.95;6.72;;;11.90;99.90;;;;;;4964641;28;20019;-78
2022/04/22 07:34:26;;;;;;;11.68;7.43;;;12.10;99.90;;;;;;4964341;28;20058;-78
2022/04/22 07:36:52;;;;;;;9.55;8.13;;;12.30;99.90;;;;;;4964380;28;20019;-78
2022/04/22 07:39:18;;;;;;;11.82;7.93;;;12.40;99.90;;;;;;4972168;28;20117;-78
2022/04/22 07:41:46;;;;;;;11.63;6.90;;;12.50;99.90;;;;;;4983638;28;20046;-77
2022/04/22 07:46:59;;;;;;;8.45;7.07;;;12.40;99.90;;;;;;5000692;28;20081;-78
2022/04/22 07:49:26;;;;;;;9.60;7.13;;;12.50;99.90;;;;;;4999492;28;20014;-78
2022/04/22 07:51:52;;;;;;;10.68;6.95;;;12.50;99.90;;;;;;4971786;28;21420;-78
2022/04/22 07:54:18;;;;;;;9.40;7.28;;;12.40;99.90;;;;;;4999477;28;20019;-77
2022/04/22 07:56:44;;;;;;;10.50;7.07;;;12.40;99.90;;;;;;4998786;28;20034;-78
2022/04/22 07:59:11;;;;;;;10.05;7.55;;;12.50;99.90;;;;;;4975279;28;20061;-77
2022/04/22 08:01:37;;;;;;;9.13;7.28;;;12.70;99.90;;;;;;5000103;28;20099;-77
2022/04/22 08:04:03;;;;;;;11.18;7.45;;;12.70;99.90;;;;;;4982851;28;20026;-78
2022/04/22 08:06:29;;;;;;;10.73;7.45;;;12.70;99.90;;;;;;5000765;28;20054;-78
2022/04/22 08:08:55;;;;;;;10.85;7.35;;;12.60;99.90;;;;;;5000522;28;20033;-78
2022/04/22 08:11:21;;;;;;;15.00;8.15;;;12.60;99.90;;;;;;4983309;28;20034;-78
2022/04/22 08:13:48;;;;;;;10.52;7.22;;;12.60;99.90;;;;;;5000728;28;20018;-78
2022/04/22 08:16:14;;;;;;;10.65;7.95;;;12.60;99.90;;;;;;4983945;28;20042;-78
2022/04/22 08:18:40;;;;;;;10.32;7.32;;;12.70;99.90;;;;;;4982436;28;20047;-78
2022/04/22 08:21:08;;;;;;;11.52;7.10;;;12.80;99.90;;;;;;4964132;28;20030;-78
2022/04/22 08:23:34;;;;;;;8.35;7.07;;;12.80;99.90;;;;;;4980983;28;20023;-78
2022/04/22 08:26:00;;;;;;;7.97;6.47;;;13.00;99.90;;;;;;4980969;28;20045;-78
2022/04/22 08:28:26;;;;;;;9.98;6.68;;;13.00;99.90;;;;;;4963481;28;20046;-79
2022/04/22 08:30:52;;;;;;;9.90;7.15;;;13.00;99.90;;;;;;4980898;28;21324;-78
2022/04/22 08:33:18;;;;;;;11.25;7.53;;;12.90;99.90;;;;;;4993929;28;20023;-78
2022/04/22 08:35:44;;;;;;;9.32;7.30;;;13.00;99.90;;;;;;4981796;28;20084;-78
2022/04/22 08:38:10;;;;;;;13.63;7.57;;;13.20;99.90;;;;;;5000082;28;20510;-78
2022/04/22 08:41:01;;;;;;;12.30;7.55;;;13.30;99.90;;;;;;4982448;28;20034;-79
2022/04/22 08:43:27;;;;;;;11.75;6.47;;;13.30;99.90;;;;;;4982954;28;20490;-79
2022/04/22 08:45:53;;;;;;;9.50;7.63;;;13.40;99.90;;;;;;4999906;28;20042;-77
2022/04/22 08:51:04;;;;;;;10.40;6.82;;;13.50;99.90;;;;;;4999980;28;20053;-78
2022/04/22 08:53:32;;;;;;;12.30;6.82;;;13.70;99.90;;;;;;5000000;28;20033;-78
2022/04/22 08:56:02;;;;;;;11.25;7.72;;;13.80;99.90;;;;;;4999678;28;20035;-78
2022/04/22 08:58:29;;;;;;;10.75;7.15;;;14.30;99.90;;;;;;4982489;28;20023;-78
2022/04/22 09:00:58;;;;;;;11.88;8.18;;;14.30;99.90;;;;;;4999859;28;20041;-78
2022/04/22 09:03:27;;;;;;;15.95;7.68;;;14.50;99.90;;;;;;4982215;28;20037;-78
2022/04/22 09:05:59;;;;;;;15.18;7.60;;;14.70;99.90;;;;;;4982139;28;20062;-78
2022/04/22 09:08:26;;;;;;;8.32;6.60;;;14.80;99.90;;;;;;4999554;28;20105;-78
2022/04/22 09:10:53;;;;;;;9.98;7.28;;;14.70;99.90;;;;;;4999929;28;20033;-79
2022/04/22 09:13:27;;;;;;;9.68;7.03;;;14.80;99.90;;;;;;4999351;28;20030;-78
2022/04/22 09:15:55;;;;;;;8.02;6.35;;;15.00;99.90;;;;;;4999369;28;20050;-78
2022/04/22 09:18:25;;;;;;;7.25;6.18;;;15.00;99.90;;;;;;4966185;28;20030;-78
2022/04/22 09:20:53;;;;;;;9.13;6.40;;;15.10;99.90;;;;;;4980172;28;20061;-77
2022/04/22 09:23:35;;;;;;;12.05;7.13;;;15.40;99.90;;;;;;4979828;28;20038;-77
2022/04/22 09:26:03;;;;;;;12.43;6.60;;;15.30;99.90;;;;;;4962302;28;20039;-78
2022/04/22 09:28:30;;;;;;;9.15;6.82;;;15.20;99.90;;;;;;4962571;28;20023;-78
2022/04/22 09:31:04;;;;;;;11.45;6.68;;;15.40;99.90;;;;;;4962176;28;20027;-78
2022/04/22 09:33:50;;;;;;;10.98;6.20;;;15.50;99.90;;;;;;4962511;28;20109;-78
2022/04/22 09:44:56;;;;;;;10.82;7.45;;;15.40;99.90;;;;;;4979545;28;20073;-78
2022/04/22 09:47:27;;;;;;;11.80;7.68;;;15.20;99.90;;;;;;4962106;28;20045;-78
2022/04/22 09:49:54;;;;;;;9.80;7.88;;;15.10;99.90;;;;;;4962387;28;20023;-78
2022/04/22 09:52:27;;;;;;;11.68;8.25;;;15.10;99.90;;;;;;4961545;28;20070;-78
2022/04/22 09:54:58;;;;;;;14.02;7.20;;;15.10;99.90;;;;;;4979382;28;20027;-78
2022/04/22 09:57:24;;;;;;;;;;;15.30;99.90;;;;;;4962162;28;20030;-78
2022/04/22 09:59:51;;;;;;;8.63;7.70;;;15.40;99.90;;;;;;4979249;28;20025;-78
2022/04/22 10:02:25;;;;;;;12.30;8.40;;;15.40;99.90;;;;;;4979104;28;20033;-79
2022/04/22 10:04:54;;;;;;;11.48;8.95;;;15.50;99.90;;;;;;4983902;28;20081;-79
2022/04/22 10:07:26;;;;;;;8.38;7.47;;;15.90;99.90;;;;;;4998431;28;20093;-78
2022/04/22 10:09:54;;;;;;;10.65;8.23;;;16.20;99.90;;;;;;4980863;28;20069;-78
2022/04/22 10:12:24;;;;;;;14.48;8.95;;;16.50;99.90;;;;;;4998501;28;20033;-78
2022/04/22 10:14:55;;;;;;;14.73;8.90;;;16.50;99.90;;;;;;4980500;28;20069;-78
2022/04/22 10:17:22;;;;;;;8.98;7.75;;;16.00;99.90;;;;;;4990821;28;20081;-79
2022/04/22 10:19:49;;;;;;;9.52;7.57;;;16.20;99.90;;;;;;4978805;28;20030;-78
2022/04/22 10:22:18;;;;;;;12.13;8.23;;;16.30;99.90;;;;;;4978792;28;20026;-79
2022/04/22 10:24:44;;;;;;;10.77;8.35;;;16.20;99.90;;;;;;4961212;28;20146;-78
2022/04/22 10:27:10;;;;;;;11.38;8.52;;;16.30;99.90;;;;;;4961317;28;20098;-80
2022/04/22 10:29:40;;;;;;;12.05;9.10;;;16.30;99.90;;;;;;4978539;28;20027;-80
2022/04/22 10:32:07;;;;;;;9.48;7.80;;;16.20;99.90;;;;;;4979041;28;20178;-80
2022/04/22 10:34:43;;;;;;;9.85;7.25;;;16.40;99.90;;;;;;4961157;28;20046;-80
2022/04/22 10:37:28;;;;;;;10.35;7.40;;;16.80;99.90;;;;;;4961183;28;20031;-81
2022/04/22 10:39:59;;;;;;;14.02;7.72;;;16.80;99.90;;;;;;4961475;28;20065;-80
2022/04/22 10:42:41;;;;;;;10.60;6.35;;;16.80;99.90;;;;;;4978605;28;20382;-80
2022/04/22 10:47:54;;;;;;;9.85;7.85;;;16.50;99.90;;;;;;4978633;28;20108;-79
2022/04/22 10:50:33;;;;;;;11.20;8.25;;;16.20;99.90;;;;;;4978667;28;20024;-79
2022/04/22 10:53:10;;;;;;;12.45;9.63;;;16.20;99.90;;;;;;4986724;28;20502;-79
2022/04/22 10:55:40;;;;;;;12.45;8.68;;;16.10;99.90;;;;;;4980348;28;20038;-79
2022/04/22 10:58:20;;;;;;;14.48;9.45;;;16.20;99.90;;;;;;4997697;28;20038;-79
2022/04/22 11:00:51;;;;;;;16.23;8.80;;;16.30;99.90;;;;;;4997900;28;20031;-80
2022/04/22 11:03:19;;;;;;;;;;;16.30;99.90;;;;;;4981008;28;20065;-79
2022/04/22 11:05:47;;;;;;;14.63;9.52;;;16.00;99.90;;;;;;4998092;28;19945;-80
2022/04/22 11:08:29;;;;;;;12.77;9.18;;;16.20;99.90;;;;;;4998056;28;20054;-80
2022/04/22 11:10:54;;;;;;;12.07;8.90;;;16.10;99.90;;;;;;4980043;28;20501;-80
2022/04/22 11:13:34;;;;;;;12.27;8.23;;;16.30;99.90;;;;;;4980276;28;20030;-80
2022/04/22 11:16:07;;;;;;;14.43;9.13;;;16.50;99.90;;;;;;4997323;28;20414;-80
2022/04/22 11:18:35;;;;;;;14.32;9.48;;;16.50;99.90;;;;;;4996788;28;20026;-81
2022/04/22 11:21:25;;;;;;;13.68;9.68;;;16.70;99.90;;;;;;4980198;28;20109;-81
2022/04/22 11:23:51;;;;;;;13.27;8.32;;;17.20;99.90;;;;;;4978559;28;20046;-77
2022/04/22 11:26:17;;;;;;;10.80;8.23;;;17.70;99.90;;;;;;4997105;28;20062;-78
2022/04/22 11:28:45;;;;;;;10.73;7.75;;;17.90;99.90;;;;;;4979993;28;20568;-78
2022/04/22 11:31:13;;;;;;;11.35;8.60;;;18.20;99.90;;;;;;4997387;28;20022;-81
2022/04/22 11:33:48;;;;;;;15.05;8.18;;;18.30;99.90;;;;;;4997600;28;20029;-79
2022/04/22 11:36:14;;;;;;;10.70;8.43;;;18.60;99.90;;;;;;4980146;28;20486;-79
2022/04/22 11:38:48;;;;;;;11.68;8.63;;;18.90;99.90;;;;;;4997647;28;20035;-79
2022/04/22 11:41:14;;;;;;;11.63;8.35;;;18.50;99.90;;;;;;4997072;28;20026;-79
2022/04/22 11:43:41;;;;;;;10.32;8.23;;;18.50;99.90;;;;;;4980143;28;20109;-79
2022/04/22 11:46:09;;;;;;;12.68;8.82;;;18.50;99.90;;;;;;4997058;28;20501;-79
2022/04/22 11:48:43;;;;;;;11.38;8.65;;;18.30;99.90;;;;;;4997379;28;20023;-78
2022/04/22 11:51:09;;;;;;;14.38;8.20;;;18.30;99.90;;;;;;4979890;28;20105;-78
2022/04/22 11:53:35;;;;;;;12.05;8.40;;;18.30;99.90;;;;;;4997397;28;20061;-79
2022/04/22 11:56:02;;;;;;;15.77;8.00;;;18.50;99.90;;;;;;4979340;28;20066;-78
2022/04/22 11:58:28;;;;;;;15.23;8.77;;;18.80;99.90;;;;;;4997344;28;20085;-79
2022/04/22 12:06:25;;;;;;;10.15;7.88;;;18.70;99.90;;;;;;4997228;28;20049;-79
2022/04/22 12:08:56;;;;;;;13.40;8.20;;;18.90;99.90;;;;;;4997466;28;20102;-79
2022/04/22 12:11:24;;;;;;;10.75;7.28;;;18.90;99.90;;;;;;4999842;28;20090;-79
2022/04/22 12:13:51;;;;;;;13.02;7.85;;;19.00;99.90;;;;;;5001386;28;20089;-79
2022/04/22 12:16:21;;;;;;;10.73;7.18;;;19.10;99.90;;;;;;5001423;28;20069;-77
2022/04/22 12:18:48;;;;;;;10.93;7.22;;;18.90;99.90;;;;;;4964285;28;20034;-79
2022/04/22 12:21:15;;;;;;;11.82;8.15;;;18.60;99.90;;;;;;4964341;28;20031;-79
2022/04/22 12:23:43;;;;;;;13.07;9.40;;;18.50;99.90;;;;;;4963968;28;20026;-79
2022/04/22 12:26:22;;;;;;;10.57;6.97;;;18.40;99.90;;;;;;4980986;28;20034;-79
2022/04/22 12:29:10;;;;;;;14.43;9.00;;;18.30;99.90;;;;;;4981153;28;20034;-79
2022/04/22 12:31:41;;;;;;;10.70;8.55;;;18.40;99.90;;;;;;4963629;28;20514;-80
2022/04/22 12:34:11;;;;;;;12.70;8.60;;;18.50;99.90;;;;;;4980939;28;20026;-78
2022/04/22 12:36:54;;;;;;;12.85;8.65;;;18.40;99.90;;;;;;4986833;28;20022;-78
2022/04/22 12:39:41;;;;;;;12.73;9.18;;;18.30;99.90;;;;;;4982761;28;20037;-79
2022/04/22 12:42:16;;;;;;;9.32;7.70;;;18.30;99.90;;;;;;4982772;28;20029;-78
2022/04/22 12:52:08;;;;;;;10.95;8.32;;;18.30;99.90;;;;;;4999997;28;20117;-79
2022/04/22 12:52:58;;;;;;;11.70;8.75;;;18.80;99.90;;;;;;5000220;28;20037;-78
2022/04/22 12:55:24;;;;;;;12.18;8.35;;;18.90;99.90;;;;;;4999681;28;20478;-79
2022/04/22 12:57:59;;;;;;;13.73;8.25;;;18.80;99.90;;;;;;4982500;28;20037;-79
2022/04/22 13:00:26;;;;;;;14.00;9.93;;;18.60;99.90;;;;;;4999834;28;20022;-79
2022/04/22 13:02:52;;;;;;;10.32;7.90;;;18.70;99.90;;;;;;4999813;28;20405;-80
2022/04/22 13:05:19;;;;;;;11.55;7.53;;;18.80;99.90;;;;;;4982040;28;20113;-77
2022/04/22 13:07:50;;;;;;;10.73;8.38;;;18.90;99.90;;;;;;4982399;28;20030;-78
2022/04/22 13:10:22;;;;;;;15.85;7.55;;;19.00;99.90;;;;;;4999398;28;20395;-79
2022/04/22 13:12:49;;;;;;;11.18;8.40;;;18.90;99.90;;;;;;4998574;28;20018;-78
2022/04/22 13:15:19;;;;;;;9.32;6.60;;;19.10;99.90;;;;;;4968948;28;20038;-78
2022/04/22 13:17:47;;;;;;;14.10;7.78;;;19.00;99.90;;;;;;4971993;28;20022;-79
2022/04/22 13:20:17;;;;;;;9.52;7.95;;;19.00;99.90;;;;;;4999318;28;20038;-79
2022/04/22 13:22:43;;;;;;;9.95;7.72;;;19.10;99.90;;;;;;4982009;28;20053;-79
2022/04/22 13:25:11;;;;;;;11.82;7.50;;;19.10;99.90;;;;;;4999148;28;20049;-79
2022/04/22 13:27:39;;;;;;;12.23;8.57;;;19.10;99.90;;;;;;4999322;28;20076;-78
2022/04/22 13:30:05;;;;;;;9.52;7.13;;;18.80;99.90;;;;;;4999941;28;20458;-79
2022/04/22 13:32:32;;;;;;;10.23;7.72;;;18.90;99.90;;;;;;4981649;28;20037;-79
2022/04/22 13:34:58;;;;;;;11.15;8.07;;;19.00;99.90;;;;;;4962862;28;20041;-79
2022/04/22 13:37:24;;;;;;;9.10;7.07;;;19.30;99.90;;;;;;4962547;28;20030;-78
2022/04/22 13:39:50;;;;;;;14.02;7.53;;;19.60;99.90;;;;;;4979748;28;20065;-79
2022/04/22 13:42:18;;;;;;;12.20;7.10;;;19.80;99.90;;;;;;4979452;28;20033;-79
2022/04/22 13:52:58;;;;;;;12.75;7.53;;;20.20;99.90;;;;;;4987033;28;20030;-80
2022/04/22 13:55:24;;;;;;;7.95;6.13;;;20.20;99.90;;;;;;4997579;28;20031;-80
2022/04/22 13:57:50;;;;;;;10.05;6.45;;;20.20;99.90;;;;;;4981556;28;20023;-79